Time;durP1;ratioP1;P1;durP2;ratioP2;P2;SDS_P1;SDS_P2;PMS_P1;PMS_P2;Temp;Humidity;BMP_temperature;BMP_pressure;BME280_temperature;BME280_humidity;BME280_pressure;Samples;Min_cycle;Max_cycle;Signal;HPM_P1;HPM_P2
2023/02/04 00:01:10;;;;;;;1.30;0.30;;;7.90;89.80;;;;;;6188113;23;20008;-75
2023/02/04 00:03:36;;;;;;;1.60;0.50;;;7.80;89.70;;;;;;6163344;23;20112;-75
2023/02/04 00:06:02;;;;;;;1.55;0.60;;;7.90;89.80;;;;;;6163444;23;20008;-76
2023/02/04 00:08:27;;;;;;;1.17;0.50;;;7.90;89.90;;;;;;6188058;23;20012;-75
2023/02/04 00:10:53;;;;;;;1.90;0.30;;;7.80;89.80;;;;;;6163690;23;20036;-76
2023/02/04 00:13:19;;;;;;;0.22;0.20;;;7.80;89.90;;;;;;6189421;23;20059;-75
2023/02/04 00:15:45;;;;;;;1.73;0.38;;;7.80;89.90;;;;;;6207991;23;20016;-75
2023/02/04 00:18:10;;;;;;;2.72;0.43;;;7.70;90.00;;;;;;6158177;23;20016;-75
2023/02/04 00:20:36;;;;;;;1.38;0.40;;;7.70;90.00;;;;;;6206495;23;20011;-75
2023/02/04 00:23:02;;;;;;;0.52;0.35;;;7.70;90.00;;;;;;6117118;23;20082;-75
2023/02/04 00:25:27;;;;;;;0.10;0.10;;;7.70;90.00;;;;;;6116175;23;20041;-75
2023/02/04 00:27:53;;;;;;;1.45;0.40;;;7.60;90.00;;;;;;6113217;23;20045;-75
2023/02/04 00:30:18;;;;;;;0.40;0.40;;;7.70;90.00;;;;;;6089116;23;20014;-75
2023/02/04 00:32:44;;;;;;;1.25;0.30;;;7.60;90.10;;;;;;6070877;23;20017;-76
2023/02/04 00:35:10;;;;;;;0.80;0.28;;;7.70;90.10;;;;;;6122023;23;20119;-76
2023/02/04 00:37:35;;;;;;;1.00;0.30;;;7.60;90.00;;;;;;6097988;23;20022;-77
2023/02/04 00:40:01;;;;;;;0.52;0.38;;;7.60;90.00;;;;;;6074399;23;20014;-76
2023/02/04 00:42:27;;;;;;;0.47;0.43;;;7.50;90.10;;;;;;6123721;23;20096;-75
2023/02/04 00:44:53;;;;;;;1.45;0.45;;;7.50;90.10;;;;;;6099319;23;20449;-76
2023/02/04 00:47:19;;;;;;;0.47;0.28;;;7.50;90.20;;;;;;6075172;23;20382;-76
2023/02/04 00:49:44;;;;;;;1.30;0.50;;;7.50;90.20;;;;;;6099230;23;20018;-76
2023/02/04 00:52:10;;;;;;;1.17;0.30;;;7.40;90.10;;;;;;6072266;23;20442;-75
2023/02/04 00:54:36;;;;;;;0.95;0.30;;;7.40;90.10;;;;;;6166714;23;20318;-76
2023/02/04 00:57:01;;;;;;;1.00;0.40;;;7.40;90.20;;;;;;6189220;23;20377;-75
2023/02/04 00:59:27;;;;;;;0.63;0.30;;;7.50;90.20;;;;;;6215169;23;20008;-75
2023/02/04 01:01:53;;;;;;;1.05;0.50;;;7.40;90.20;;;;;;6188997;23;20009;-75
2023/02/04 01:04:18;;;;;;;1.08;0.32;;;7.30;90.20;;;;;;6190368;23;20005;-75
2023/02/04 01:06:44;;;;;;;1.35;0.25;;;7.30;90.10;;;;;;6176008;23;20066;-75
2023/02/04 01:09:10;;;;;;;1.83;0.47;;;7.40;90.10;;;;;;6177034;23;20158;-75
2023/02/04 01:11:36;;;;;;;0.80;0.20;;;7.20;90.10;;;;;;6197375;23;20448;-75
2023/02/04 01:14:02;;;;;;;1.75;0.57;;;7.20;90.20;;;;;;6226495;23;20004;-74
2023/02/04 01:16:28;;;;;;;0.45;0.20;;;7.20;90.20;;;;;;6191668;23;20009;-74
2023/02/04 01:18:54;;;;;;;0.63;0.32;;;7.10;90.20;;;;;;6168380;23;20058;-75
2023/02/04 01:21:22;;;;;;;0.38;0.28;;;7.10;90.20;;;;;;6203035;23;20051;-74
2023/02/04 01:23:49;;;;;;;0.45;0.30;;;7.10;90.30;;;;;;6172710;23;20012;-75
2023/02/04 01:26:15;;;;;;;0.20;0.20;;;7.00;90.30;;;;;;6193986;23;20123;-75
2023/02/04 01:28:41;;;;;;;0.73;0.10;;;6.90;90.30;;;;;;6214657;23;20059;-75
2023/02/04 01:31:06;;;;;;;1.00;0.28;;;6.90;90.40;;;;;;6163221;23;20012;-74
2023/02/04 01:33:32;;;;;;;0.57;0.38;;;6.90;90.40;;;;;;6188253;23;20018;-75
2023/02/04 01:35:58;;;;;;;0.93;0.55;;;6.90;90.40;;;;;;6215088;23;20017;-75
2023/02/04 01:38:23;;;;;;;1.08;0.40;;;6.90;90.40;;;;;;6192340;23;20034;-75
2023/02/04 01:40:49;;;;;;;1.15;0.40;;;6.90;90.40;;;;;;6194437;23;20044;-75
2023/02/04 01:43:17;;;;;;;1.15;0.40;;;6.90;90.40;;;;;;6164420;23;20054;-76
2023/02/04 01:45:44;;;;;;;0.28;0.20;;;6.90;90.40;;;;;;6189181;23;20004;-76
2023/02/04 01:48:11;;;;;;;0.93;0.30;;;6.90;90.40;;;;;;6188226;23;20417;-75
2023/02/04 01:50:37;;;;;;;2.10;0.38;;;6.90;90.40;;;;;;6188655;23;20043;-76
2023/02/04 01:53:03;;;;;;;0.40;0.20;;;6.80;90.40;;;;;;6141977;23;20012;-76
2023/02/04 01:55:31;;;;;;;0.45;0.20;;;6.80;90.40;;;;;;6189821;23;20012;-76
2023/02/04 01:57:57;;;;;;;1.40;0.30;;;6.80;90.40;;;;;;6164257;23;20021;-76
2023/02/04 02:00:28;;;;;;;0.50;0.20;;;6.80;90.40;;;;;;6181850;23;20011;-75
2023/02/04 02:02:55;;;;;;;0.38;0.30;;;6.70;90.40;;;;;;6139487;23;20008;-77
2023/02/04 02:05:24;;;;;;;0.57;0.22;;;6.60;90.40;;;;;;6188750;23;20005;-75
2023/02/04 02:07:52;;;;;;;0.55;0.50;;;6.80;90.40;;;;;;6140163;23;20020;-75
2023/02/04 02:10:18;;;;;;;1.70;0.47;;;6.70;90.40;;;;;;6166040;23;20070;-75
2023/02/04 02:12:45;;;;;;;0.68;0.30;;;6.70;90.40;;;;;;6176643;23;20016;-76
2023/02/04 02:15:12;;;;;;;0.20;0.20;;;6.60;90.40;;;;;;6163474;23;20472;-75
2023/02/04 02:17:38;;;;;;;1.60;0.40;;;6.60;90.50;;;;;;6188767;23;20092;-75
2023/02/04 02:20:06;;;;;;;0.22;0.22;;;6.60;90.50;;;;;;6163315;23;20353;-75
2023/02/04 02:22:39;;;;;;;0.55;0.30;;;6.60;90.50;;;;;;6188903;23;20151;-75
2023/02/04 02:25:11;;;;;;;1.67;0.35;;;6.60;90.50;;;;;;6220699;23;20008;-75
2023/02/04 02:27:37;;;;;;;1.20;0.40;;;6.50;90.50;;;;;;6178295;23;20017;-74
2023/02/04 02:30:05;;;;;;;1.60;0.40;;;6.50;90.50;;;;;;6198888;23;20016;-74
2023/02/04 02:32:31;;;;;;;1.90;0.30;;;6.40;90.60;;;;;;6220365;23;20337;-75
2023/02/04 02:34:56;;;;;;;1.23;0.40;;;6.40;90.60;;;;;;6165107;23;20038;-74
2023/02/04 02:37:22;;;;;;;0.40;0.40;;;6.40;90.60;;;;;;6168763;23;20082;-74
2023/02/04 02:39:48;;;;;;;1.60;0.47;;;6.40;90.60;;;;;;6192804;23;20008;-74
2023/02/04 02:42:17;;;;;;;1.25;0.60;;;6.30;90.60;;;;;;6219636;23;20012;-74
2023/02/04 02:44:45;;;;;;;0.77;0.32;;;6.30;90.60;;;;;;6191589;23;20005;-74
2023/02/04 02:47:17;;;;;;;0.55;0.30;;;6.40;90.60;;;;;;6215146;23;20011;-74
2023/02/04 02:49:43;;;;;;;;;;;6.20;90.60;;;;;;6215307;23;20008;-74
2023/02/04 02:52:12;;;;;;;1.58;0.40;;;6.20;90.60;;;;;;6214860;23;19915;-74
2023/02/04 02:54:38;;;;;;;0.60;0.20;;;6.20;90.60;;;;;;6211461;23;20008;-74
2023/02/04 02:57:12;;;;;;;0.70;0.38;;;6.20;90.70;;;;;;6215010;23;20016;-74
2023/02/04 02:59:37;;;;;;;0.60;0.30;;;6.10;90.70;;;;;;6214755;23;20004;-74
2023/02/04 03:02:05;;;;;;;0.47;0.20;;;6.10;90.80;;;;;;6214382;23;20024;-74
2023/02/04 03:04:34;;;;;;;0.75;0.28;;;6.00;90.80;;;;;;6187772;23;20035;-74
2023/02/04 03:07:00;;;;;;;0.38;0.20;;;6.00;90.80;;;;;;6214289;23;20023;-74
2023/02/04 03:09:27;;;;;;;0.32;0.25;;;5.90;90.90;;;;;;6187824;23;20087;-74
2023/02/04 03:11:53;;;;;;;0.25;0.13;;;6.00;90.90;;;;;;6214154;23;20451;-75
2023/02/04 03:14:19;;;;;;;0.82;0.20;;;5.80;90.90;;;;;;6187717;23;20020;-74
2023/02/04 03:16:47;;;;;;;0.40;0.20;;;5.80;91.00;;;;;;6214067;23;20008;-74
2023/02/04 03:19:13;;;;;;;0.60;0.35;;;5.70;91.00;;;;;;6187734;23;20096;-74
2023/02/04 03:21:39;;;;;;;0.32;0.30;;;5.70;91.00;;;;;;6214604;23;20036;-74
2023/02/04 03:24:05;;;;;;;0.95;0.22;;;5.70;91.00;;;;;;6214708;23;20020;-74
2023/02/04 03:26:31;;;;;;;0.30;0.20;;;5.70;91.00;;;;;;6214127;23;20009;-74
2023/02/04 03:28:58;;;;;;;0.35;0.20;;;5.60;91.10;;;;;;6213904;23;20318;-74
2023/02/04 03:31:24;;;;;;;1.00;0.20;;;5.60;91.10;;;;;;6214051;23;20012;-75
2023/02/04 03:33:49;;;;;;;0.40;0.30;;;5.50;91.10;;;;;;6214336;23;20100;-74
2023/02/04 03:36:15;;;;;;;0.88;0.20;;;5.50;91.10;;;;;;6187563;23;20452;-74
2023/02/04 03:38:41;;;;;;;0.25;0.20;;;5.50;91.10;;;;;;6214813;23;20409;-74
2023/02/04 03:41:07;;;;;;;0.68;0.20;;;5.50;91.20;;;;;;6214128;23;20161;-74
2023/02/04 03:43:32;;;;;;;0.70;0.30;;;5.40;91.20;;;;;;6188204;23;20036;-74
2023/02/04 03:45:58;;;;;;;0.22;0.20;;;5.40;91.20;;;;;;6214584;23;20020;-74
2023/02/04 03:48:24;;;;;;;0.20;0.20;;;5.30;91.20;;;;;;6214509;23;20088;-74
2023/02/04 03:50:49;;;;;;;1.00;0.28;;;5.30;91.20;;;;;;6188163;23;20459;-74
2023/02/04 03:53:15;;;;;;;0.35;0.10;;;5.20;91.30;;;;;;6214017;23;20063;-74
2023/02/04 03:55:41;;;;;;;0.15;0.10;;;5.20;91.30;;;;;;6187130;23;20013;-74
2023/02/04 03:58:06;;;;;;;0.40;0.32;;;5.20;91.30;;;;;;6213715;23;20012;-74
2023/02/04 04:00:32;;;;;;;1.25;0.40;;;5.20;91.30;;;;;;6214310;23;20008;-74
2023/02/04 04:02:58;;;;;;;0.20;0.20;;;5.10;91.30;;;;;;6187386;23;20035;-74
2023/02/04 04:05:25;;;;;;;0.40;0.30;;;5.10;91.30;;;;;;6213766;23;20012;-74
2023/02/04 04:07:51;;;;;;;0.80;0.30;;;5.00;91.60;;;;;;6213890;23;20387;-74
2023/02/04 04:10:16;;;;;;;0.50;0.28;;;4.90;91.30;;;;;;6187055;23;20013;-75
2023/02/04 04:12:42;;;;;;;0.32;0.25;;;5.00;91.40;;;;;;6214306;23;20008;-75
2023/02/04 04:15:08;;;;;;;0.65;0.40;;;4.90;91.40;;;;;;6188006;23;20095;-75
2023/02/04 04:17:34;;;;;;;0.77;0.35;;;4.90;91.40;;;;;;6215557;23;20088;-74
2023/02/04 04:19:59;;;;;;;0.85;0.20;;;4.90;91.40;;;;;;6215429;23;20015;-74
2023/02/04 04:22:25;;;;;;;1.08;0.45;;;4.80;91.40;;;;;;6163747;23;20012;-74
2023/02/04 04:24:50;;;;;;;1.42;0.50;;;4.80;91.40;;;;;;6215606;23;20035;-75
2023/02/04 04:27:16;;;;;;;0.57;0.32;;;4.80;91.40;;;;;;6188614;23;20035;-74
2023/02/04 04:29:42;;;;;;;0.32;0.30;;;4.70;91.40;;;;;;6188428;23;20332;-74
2023/02/04 04:32:08;;;;;;;0.98;0.47;;;4.70;91.50;;;;;;6215134;23;20023;-74
2023/02/04 04:34:34;;;;;;;0.85;0.22;;;4.70;91.50;;;;;;6188838;23;20103;-74
2023/02/04 04:37:00;;;;;;;0.77;0.30;;;4.70;91.50;;;;;;6215336;23;20026;-74
2023/02/04 04:39:25;;;;;;;0.90;0.30;;;4.60;91.50;;;;;;6214929;23;20421;-74
2023/02/04 04:41:51;;;;;;;0.20;0.20;;;4.60;91.50;;;;;;6163692;23;20019;-74
2023/02/04 04:44:17;;;;;;;1.65;0.20;;;4.70;91.50;;;;;;6163672;23;20095;-74
2023/02/04 04:46:42;;;;;;;0.25;0.20;;;4.70;91.50;;;;;;6214893;23;20009;-74
2023/02/04 04:49:08;;;;;;;1.13;0.40;;;4.60;91.50;;;;;;6215007;23;20012;-75
2023/02/04 04:51:33;;;;;;;0.57;0.30;;;4.60;91.50;;;;;;6188451;23;20008;-74
2023/02/04 04:53:59;;;;;;;2.65;0.43;;;4.60;91.50;;;;;;6214755;23;20379;-75
2023/02/04 04:56:25;;;;;;;0.75;0.20;;;4.60;91.50;;;;;;6215447;23;20009;-75
2023/02/04 04:58:51;;;;;;;1.33;0.43;;;4.70;91.50;;;;;;6188950;23;20092;-74
2023/02/04 05:01:16;;;;;;;2.05;0.63;;;4.60;91.40;;;;;;6215256;23;20433;-74
2023/02/04 05:03:42;;;;;;;2.00;0.40;;;4.70;91.50;;;;;;6215495;23;20009;-74
2023/02/04 05:06:09;;;;;;;0.20;0.20;;;4.70;91.40;;;;;;6215556;23;20012;-74
2023/02/04 05:08:35;;;;;;;1.33;0.40;;;4.70;91.50;;;;;;6189153;23;20012;-74
2023/02/04 05:11:02;;;;;;;0.38;0.35;;;4.70;91.40;;;;;;6215543;23;20062;-74
2023/02/04 05:13:28;;;;;;;0.43;0.30;;;4.70;91.40;;;;;;6215199;23;20009;-74
2023/02/04 05:15:53;;;;;;;0.43;0.20;;;4.70;91.40;;;;;;6188485;23;20321;-74
2023/02/04 05:18:19;;;;;;;0.35;0.22;;;4.70;91.40;;;;;;6214870;23;20013;-74
2023/02/04 05:20:45;;;;;;;0.85;0.20;;;4.80;91.40;;;;;;6214875;23;20055;-74
2023/02/04 05:23:10;;;;;;;0.32;0.20;;;4.90;91.40;;;;;;6215209;23;20008;-74
2023/02/04 05:25:37;;;;;;;0.40;0.20;;;4.90;91.30;;;;;;6214653;23;20005;-74
2023/02/04 05:28:03;;;;;;;0.43;0.35;;;4.90;91.30;;;;;;6214911;23;20013;-74
2023/02/04 05:30:29;;;;;;;0.20;0.20;;;4.90;91.20;;;;;;6215399;23;20086;-74
2023/02/04 05:32:55;;;;;;;0.30;0.30;;;4.90;91.20;;;;;;6188838;23;20382;-74
2023/02/04 05:35:20;;;;;;;0.52;0.40;;;4.90;91.20;;;;;;6188544;23;20020;-74
2023/02/04 05:37:46;;;;;;;0.57;0.47;;;4.90;91.30;;;;;;6188313;23;20008;-74
2023/02/04 05:40:13;;;;;;;0.82;0.38;;;4.90;91.20;;;;;;6215019;23;20004;-74
2023/02/04 05:42:39;;;;;;;1.48;0.20;;;5.00;91.30;;;;;;6214852;23;20055;-74
2023/02/04 05:45:04;;;;;;;0.57;0.22;;;4.90;91.20;;;;;;6214839;23;20114;-74
2023/02/04 05:47:30;;;;;;;0.50;0.40;;;5.00;91.20;;;;;;6214732;23;20017;-74
2023/02/04 05:49:56;;;;;;;1.55;0.50;;;5.00;91.30;;;;;;6188203;23;20013;-74
2023/02/04 05:52:21;;;;;;;0.20;0.20;;;5.00;91.30;;;;;;6215426;23;20016;-74
2023/02/04 05:54:47;;;;;;;0.70;0.30;;;5.00;91.20;;;;;;6215473;23;20019;-75
2023/02/04 05:57:13;;;;;;;0.30;0.22;;;5.00;91.30;;;;;;6215428;23;20206;-74
2023/02/04 05:59:38;;;;;;;0.20;0.20;;;5.10;91.30;;;;;;6214779;23;20011;-74
2023/02/04 06:02:04;;;;;;;0.30;0.30;;;5.10;91.30;;;;;;6189053;23;20124;-74
2023/02/04 06:04:29;;;;;;;0.50;0.20;;;5.00;91.30;;;;;;6214930;23;20080;-74
2023/02/04 06:06:55;;;;;;;0.55;0.30;;;5.10;91.30;;;;;;6215422;23;20007;-74
2023/02/04 06:09:21;;;;;;;0.40;0.30;;;5.10;91.30;;;;;;6214995;23;20107;-74
2023/02/04 06:11:46;;;;;;;1.70;0.40;;;5.10;91.30;;;;;;6214745;23;20366;-74
2023/02/04 06:14:12;;;;;;;0.47;0.30;;;5.20;91.30;;;;;;6214784;23;20012;-74
2023/02/04 06:16:37;;;;;;;0.50;0.30;;;5.20;91.30;;;;;;6214902;23;20075;-74
2023/02/04 06:19:03;;;;;;;1.80;0.40;;;5.20;91.20;;;;;;6215225;23;20015;-74
2023/02/04 06:21:29;;;;;;;1.98;0.55;;;5.20;91.20;;;;;;6188370;23;20009;-74
2023/02/04 06:23:54;;;;;;;0.75;0.40;;;5.20;91.20;;;;;;6214856;23;20491;-74
2023/02/04 06:26:20;;;;;;;1.27;0.30;;;5.20;91.20;;;;;;6214650;23;20008;-74
2023/02/04 06:28:46;;;;;;;0.20;0.20;;;5.20;91.20;;;;;;6214969;23;20059;-74
2023/02/04 06:31:11;;;;;;;1.08;0.40;;;5.20;91.20;;;;;;6188332;23;20341;-75
2023/02/04 06:33:37;;;;;;;0.30;0.30;;;5.30;91.30;;;;;;6215382;23;20019;-75
2023/02/04 06:36:03;;;;;;;0.20;0.20;;;5.20;91.30;;;;;;6215169;23;20017;-74
2023/02/04 06:38:29;;;;;;;0.40;0.40;;;5.30;91.30;;;;;;6214062;23;20094;-74
2023/02/04 06:40:55;;;;;;;0.43;0.20;;;5.30;91.30;;;;;;6188350;23;20016;-74
2023/02/04 06:43:21;;;;;;;0.40;0.30;;;5.30;91.30;;;;;;6214760;23;20017;-74
2023/02/04 06:45:47;;;;;;;0.60;0.40;;;5.30;91.30;;;;;;6214585;23;20016;-74
2023/02/04 06:48:12;;;;;;;1.50;0.50;;;5.30;91.30;;;;;;6214604;23;20009;-74
2023/02/04 06:50:38;;;;;;;1.08;0.60;;;5.30;91.30;;;;;;6163701;23;20017;-74
2023/02/04 06:53:04;;;;;;;0.77;0.40;;;5.40;91.30;;;;;;6215061;23;20322;-74
2023/02/04 06:55:29;;;;;;;0.93;0.50;;;5.40;91.40;;;;;;6214704;23;20340;-74
2023/02/04 06:57:55;;;;;;;1.23;0.50;;;5.40;91.40;;;;;;6214406;23;20012;-75
2023/02/04 07:00:21;;;;;;;0.77;0.50;;;5.50;91.40;;;;;;6215179;23;20441;-74
2023/02/04 07:02:46;;;;;;;1.10;0.57;;;5.40;91.30;;;;;;6214568;23;20340;-75
2023/02/04 07:05:12;;;;;;;0.82;0.60;;;5.40;91.30;;;;;;6187768;23;20004;-74
2023/02/04 07:07:37;;;;;;;2.60;0.50;;;5.40;91.30;;;;;;6187820;23;20013;-74
2023/02/04 07:10:04;;;;;;;2.08;0.70;;;5.50;91.40;;;;;;6214909;23;20374;-75
2023/02/04 07:12:30;;;;;;;3.03;0.70;;;5.40;91.40;;;;;;6216836;23;20009;-74
2023/02/04 07:14:55;;;;;;;0.50;0.40;;;5.50;91.40;;;;;;6189688;23;20020;-75
2023/02/04 07:17:22;;;;;;;1.55;0.50;;;5.50;91.40;;;;;;6214700;23;20062;-74
2023/02/04 07:19:48;;;;;;;1.35;0.60;;;5.50;91.40;;;;;;6185249;23;20005;-75
2023/02/04 07:22:14;;;;;;;1.55;0.55;;;5.50;91.40;;;;;;6187961;23;20016;-75
2023/02/04 07:24:40;;;;;;;1.15;0.57;;;5.60;91.40;;;;;;6214876;23;20012;-75
2023/02/04 07:27:05;;;;;;;1.65;0.50;;;5.50;91.40;;;;;;6188621;23;20314;-75
2023/02/04 07:29:31;;;;;;;0.93;0.50;;;5.60;91.40;;;;;;6163089;23;20008;-75
2023/02/04 07:31:56;;;;;;;0.55;0.32;;;5.60;91.40;;;;;;6214310;23;20465;-75
2023/02/04 07:34:22;;;;;;;3.03;0.50;;;5.60;91.40;;;;;;6214438;23;20018;-75
2023/02/04 07:36:48;;;;;;;0.88;0.50;;;5.60;91.40;;;;;;6214767;23;20040;-75
2023/02/04 07:39:13;;;;;;;2.25;0.60;;;5.60;91.40;;;;;;6214326;23;20070;-75
2023/02/04 07:41:39;;;;;;;2.05;0.50;;;5.70;91.40;;;;;;6214312;23;20009;-75
2023/02/04 07:44:05;;;;;;;1.30;0.55;;;5.70;91.40;;;;;;6188043;23;20008;-75
2023/02/04 07:46:30;;;;;;;1.80;0.60;;;5.70;91.40;;;;;;6214743;23;20023;-75
2023/02/04 07:48:56;;;;;;;3.13;0.90;;;5.70;91.40;;;;;;6187431;23;20016;-75
2023/02/04 07:51:22;;;;;;;0.75;0.32;;;5.80;91.40;;;;;;6214706;23;20008;-75
2023/02/04 07:53:47;;;;;;;2.00;0.50;;;5.80;91.40;;;;;;6214685;23;20432;-75
2023/02/04 07:56:13;;;;;;;0.77;0.43;;;5.80;91.40;;;;;;6162797;23;20368;-76
2023/02/04 07:58:39;;;;;;;1.23;0.50;;;5.90;91.40;;;;;;6187546;23;20462;-75
2023/02/04 08:01:04;;;;;;;2.90;0.70;;;5.90;91.40;;;;;;6214939;23;20012;-75
2023/02/04 08:03:30;;;;;;;1.90;0.65;;;6.00;91.40;;;;;;6187638;23;20008;-75
2023/02/04 08:05:56;;;;;;;1.85;0.60;;;5.90;91.30;;;;;;6214186;23;20004;-75
2023/02/04 08:08:21;;;;;;;2.80;0.63;;;6.00;91.40;;;;;;6187706;23;20020;-75
2023/02/04 08:10:47;;;;;;;0.77;0.47;;;6.00;91.30;;;;;;6214165;23;20012;-75
2023/02/04 08:13:13;;;;;;;1.45;0.65;;;6.00;91.30;;;;;;6214148;23;20432;-75
2023/02/04 08:15:38;;;;;;;1.05;0.43;;;6.10;91.40;;;;;;6187540;23;20432;-74
2023/02/04 08:18:04;;;;;;;1.10;0.57;;;6.20;91.40;;;;;;6188142;23;20017;-74
2023/02/04 08:20:30;;;;;;;3.03;1.00;;;6.20;91.40;;;;;;6213888;23;20035;-75
2023/02/04 08:22:56;;;;;;;1.45;0.70;;;6.20;91.30;;;;;;6187340;23;20096;-74
2023/02/04 08:25:22;;;;;;;1.45;0.80;;;6.30;91.30;;;;;;6187752;23;20076;-74
2023/02/04 08:27:47;;;;;;;2.83;0.73;;;6.30;91.30;;;;;;6214164;23;20009;-74
2023/02/04 08:30:13;;;;;;;4.47;0.80;;;6.40;91.30;;;;;;6187311;23;20013;-74
2023/02/04 08:32:39;;;;;;;1.92;0.80;;;6.40;91.30;;;;;;6188933;23;20008;-75
2023/02/04 08:35:06;;;;;;;2.50;0.65;;;6.40;91.30;;;;;;6162591;23;20012;-74
2023/02/04 08:37:32;;;;;;;1.00;0.40;;;6.50;91.30;;;;;;6163362;23;20089;-75
2023/02/04 08:39:58;;;;;;;2.33;0.60;;;6.60;91.30;;;;;;6216154;23;20004;-74
2023/02/04 08:42:24;;;;;;;2.45;0.73;;;6.60;91.30;;;;;;6170885;23;20000;-74
2023/02/04 08:44:50;;;;;;;1.65;0.70;;;6.60;91.20;;;;;;6145540;23;20325;-74
2023/02/04 08:47:16;;;;;;;0.88;0.50;;;6.70;91.20;;;;;;6164362;23;20310;-75
2023/02/04 08:49:41;;;;;;;0.98;0.70;;;6.80;91.20;;;;;;6162728;23;20013;-75
2023/02/04 08:52:07;;;;;;;0.68;0.45;;;6.70;91.20;;;;;;6147135;23;20016;-75
2023/02/04 08:54:34;;;;;;;0.45;0.45;;;6.70;91.20;;;;;;6180906;23;20019;-75
2023/02/04 08:57:00;;;;;;;0.60;0.38;;;6.80;91.20;;;;;;6197375;23;20080;-74
2023/02/04 08:59:27;;;;;;;1.13;0.45;;;6.90;91.20;;;;;;6151015;23;20104;-75
2023/02/04 09:01:53;;;;;;;1.52;0.40;;;7.10;91.30;;;;;;6176451;23;20008;-75
2023/02/04 09:04:20;;;;;;;1.05;0.52;;;7.00;91.30;;;;;;6153985;23;20496;-75
2023/02/04 09:06:47;;;;;;;1.40;0.50;;;7.00;91.20;;;;;;6174352;23;20013;-75
2023/02/04 09:09:13;;;;;;;2.22;0.77;;;7.10;91.20;;;;;;6174347;23;20361;-74
2023/02/04 09:11:40;;;;;;;1.65;0.57;;;7.20;91.20;;;;;;6196323;23;20013;-74
2023/02/04 09:14:06;;;;;;;1.30;0.50;;;7.20;91.20;;;;;;6177942;23;20019;-74
2023/02/04 09:16:32;;;;;;;3.17;1.00;;;7.30;91.10;;;;;;6171975;23;20027;-75
2023/02/04 09:18:58;;;;;;;1.63;0.65;;;7.50;91.20;;;;;;6171733;23;20009;-75
2023/02/04 09:21:24;;;;;;;1.65;0.50;;;7.40;91.10;;;;;;6226713;23;20011;-74
2023/02/04 09:23:50;;;;;;;1.45;0.52;;;7.50;91.10;;;;;;6180779;23;20005;-75
2023/02/04 09:26:16;;;;;;;1.20;0.60;;;7.70;91.00;;;;;;6232549;23;20005;-75
2023/02/04 09:28:42;;;;;;;1.70;0.70;;;7.70;91.00;;;;;;6157866;23;20040;-75
2023/02/04 09:31:11;;;;;;;1.58;0.50;;;7.80;90.90;;;;;;6182573;23;20086;-75
2023/02/04 09:33:37;;;;;;;3.75;0.85;;;7.70;90.90;;;;;;6189961;23;20040;-76
2023/02/04 09:36:03;;;;;;;2.40;0.60;;;7.80;90.90;;;;;;6167915;23;20103;-76
2023/02/04 09:38:29;;;;;;;2.83;0.70;;;7.80;90.90;;;;;;6163894;23;20087;-76
2023/02/04 09:41:00;;;;;;;2.70;0.80;;;7.80;90.90;;;;;;6200110;23;20004;-75
2023/02/04 09:43:29;;;;;;;0.95;0.50;;;7.90;90.90;;;;;;6147778;23;20036;-74
2023/02/04 09:45:56;;;;;;;3.55;0.82;;;7.90;90.90;;;;;;6116559;23;20017;-74
2023/02/04 09:48:23;;;;;;;1.77;0.77;;;8.00;90.90;;;;;;6107002;23;20375;-76
2023/02/04 09:50:50;;;;;;;2.70;0.70;;;8.00;90.90;;;;;;6050615;23;20548;-76
2023/02/04 09:53:22;;;;;;;0.77;0.50;;;8.00;90.90;;;;;;6098619;23;20109;-76
2023/02/04 09:55:50;;;;;;;1.48;0.70;;;8.00;91.00;;;;;;6102326;23;20374;-75
2023/02/04 09:58:19;;;;;;;0.73;0.57;;;8.00;91.00;;;;;;6052723;23;20021;-76
2023/02/04 10:00:47;;;;;;;1.85;0.60;;;8.00;91.00;;;;;;6087324;23;20111;-74
2023/02/04 10:03:15;;;;;;;2.22;0.90;;;8.10;91.00;;;;;;6115559;23;20128;-76
2023/02/04 10:05:43;;;;;;;1.90;0.82;;;8.10;91.00;;;;;;6092612;23;20078;-76
2023/02/04 10:08:14;;;;;;;4.13;0.85;;;8.20;91.00;;;;;;6098109;23;20022;-76
2023/02/04 10:10:40;;;;;;;2.95;0.65;;;8.20;90.90;;;;;;6074143;23;20034;-76
2023/02/04 10:13:18;;;;;;;2.05;0.60;;;8.20;90.90;;;;;;6063176;23;20053;-76
2023/02/04 10:15:46;;;;;;;1.23;0.50;;;8.30;90.90;;;;;;6091190;23;20142;-77
2023/02/04 10:18:20;;;;;;;3.05;0.70;;;8.40;90.90;;;;;;6129480;23;20040;-76
2023/02/04 10:20:45;;;;;;;2.53;0.60;;;8.40;90.80;;;;;;6118404;23;20033;-75
2023/02/04 10:23:11;;;;;;;1.42;0.47;;;8.50;90.80;;;;;;6108070;23;20410;-76
2023/02/04 10:25:37;;;;;;;3.53;0.50;;;8.60;90.80;;;;;;6127791;23;20036;-77
2023/02/04 10:28:02;;;;;;;4.18;1.00;;;8.70;90.80;;;;;;6127757;23;20036;-77
2023/02/04 10:30:34;;;;;;;5.10;0.73;;;8.70;90.70;;;;;;6128100;23;20511;-76
2023/02/04 10:33:11;;;;;;;2.65;0.70;;;8.80;90.70;;;;;;6153646;23;20018;-75
2023/02/04 10:35:45;;;;;;;1.05;0.50;;;8.80;90.60;;;;;;6111786;23;20092;-76
2023/02/04 10:38:11;;;;;;;2.47;0.55;;;8.70;90.60;;;;;;6115936;23;20076;-75
2023/02/04 10:40:37;;;;;;;2.42;0.68;;;8.70;90.60;;;;;;6127978;23;20104;-76
2023/02/04 10:43:14;;;;;;;1.27;0.85;;;8.80;90.70;;;;;;6158585;23;20017;-75
2023/02/04 10:45:45;;;;;;;2.17;0.60;;;8.80;90.70;;;;;;6215073;23;20004;-77
2023/02/04 10:48:17;;;;;;;1.10;0.43;;;8.90;90.70;;;;;;6188310;23;20444;-77
2023/02/04 10:50:46;;;;;;;1.33;0.50;;;9.00;90.60;;;;;;6166916;23;20008;-76
2023/02/04 10:55:54;;;;;;;;;;;9.20;90.50;;;;;;6194392;23;20013;-77
2023/02/04 10:58:27;;;;;;;1.00;0.32;;;9.20;90.30;;;;;;6190802;23;19922;-78
2023/02/04 11:00:53;;;;;;;1.10;0.50;;;9.30;90.30;;;;;;6213762;23;20007;-78
2023/02/04 11:03:31;;;;;;;1.48;0.40;;;9.30;90.20;;;;;;6188315;23;20341;-79
2023/02/04 11:06:00;;;;;;;3.15;0.60;;;9.40;90.20;;;;;;6208438;23;20012;-74
2023/02/04 11:08:32;;;;;;;2.03;0.50;;;9.40;90.20;;;;;;6152971;23;20346;-76
2023/02/04 11:11:02;;;;;;;1.70;0.50;;;9.40;90.20;;;;;;6133148;23;20093;-76
2023/02/04 11:13:59;;;;;;;1.35;0.28;;;9.40;90.20;;;;;;6142896;23;20032;-75
2023/02/04 11:16:31;;;;;;;3.13;0.50;;;9.40;90.20;;;;;;6138620;23;20009;-77
2023/02/04 11:19:03;;;;;;;2.35;0.57;;;9.50;90.20;;;;;;6174063;23;20013;-78
2023/02/04 11:21:43;;;;;;;1.60;0.30;;;9.50;90.20;;;;;;6154055;23;20021;-77
2023/02/04 11:24:31;;;;;;;3.58;0.40;;;9.60;90.20;;;;;;6143515;23;20021;-78
2023/02/04 11:27:17;;;;;;;3.75;0.40;;;9.70;90.10;;;;;;6141582;23;20013;-77
2023/02/04 11:29:43;;;;;;;1.15;0.40;;;9.80;90.00;;;;;;6103457;23;20045;-77
2023/02/04 11:32:31;;;;;;;1.60;0.80;;;9.80;90.00;;;;;;6127137;23;19998;-76
2023/02/04 11:35:21;;;;;;;0.65;0.30;;;9.80;90.00;;;;;;6154732;23;20024;-79
2023/02/04 11:37:47;;;;;;;0.95;0.40;;;9.90;90.00;;;;;;6142939;23;20025;-77
2023/02/04 11:40:26;;;;;;;1.10;0.50;;;10.00;89.90;;;;;;6200467;23;20016;-76
2023/02/04 11:42:59;;;;;;;2.92;0.43;;;10.00;89.90;;;;;;6170182;23;20045;-78
2023/02/04 11:45:30;;;;;;;1.67;0.40;;;10.00;89.70;;;;;;6146132;23;20078;-79
2023/02/04 11:47:58;;;;;;;1.67;0.47;;;10.00;89.80;;;;;;6168501;22;20098;-78
2023/02/04 11:50:29;;;;;;;1.38;0.60;;;10.00;89.70;;;;;;6188642;23;20016;-77
2023/02/04 11:52:56;;;;;;;0.70;0.30;;;10.10;89.60;;;;;;6188257;23;20082;-79
2023/02/04 11:55:22;;;;;;;1.02;0.30;;;10.10;89.60;;;;;;6214024;23;20019;-74
2023/02/04 11:57:53;;;;;;;4.10;0.60;;;10.10;89.50;;;;;;6187698;23;20333;-74
2023/02/04 12:00:23;;;;;;;2.95;0.43;;;10.20;89.50;;;;;;6187897;23;20012;-74
2023/02/04 12:02:56;;;;;;;1.63;0.40;;;10.30;89.50;;;;;;6213953;23;20004;-74
2023/02/04 12:05:21;;;;;;;1.90;0.50;;;10.30;89.50;;;;;;6187949;23;20484;-74
2023/02/04 12:07:48;;;;;;;3.92;0.60;;;10.40;89.40;;;;;;6213598;23;20017;-74
2023/02/04 12:10:25;;;;;;;0.82;0.57;;;10.60;89.20;;;;;;6213930;23;20013;-74
2023/02/04 12:12:56;;;;;;;4.82;0.80;;;10.70;88.90;;;;;;6185864;23;20449;-74
2023/02/04 12:15:31;;;;;;;1.55;0.57;;;10.80;88.80;;;;;;6213799;23;20038;-74
2023/02/04 12:18:11;;;;;;;1.75;0.52;;;10.90;88.50;;;;;;6163820;23;20341;-74
2023/02/04 12:20:38;;;;;;;1.75;0.60;;;11.00;88.10;;;;;;6212496;23;20012;-74
2023/02/04 12:23:04;;;;;;;3.55;0.88;;;11.10;88.10;;;;;;6213532;23;20039;-74
2023/02/04 12:25:30;;;;;;;1.58;0.50;;;11.20;87.80;;;;;;6186981;23;20375;-74
2023/02/04 12:27:56;;;;;;;2.85;0.50;;;11.10;87.60;;;;;;6213927;23;20099;-74
2023/02/04 12:30:24;;;;;;;4.32;0.80;;;11.10;87.70;;;;;;6214070;23;20040;-74
2023/02/04 12:32:50;;;;;;;2.95;0.70;;;11.00;87.90;;;;;;6213634;23;20449;-74
2023/02/04 12:35:16;;;;;;;2.45;0.70;;;11.00;87.90;;;;;;6187742;23;20036;-74
2023/02/04 12:37:42;;;;;;;1.85;0.80;;;10.90;88.20;;;;;;6188077;23;20019;-74
2023/02/04 12:40:17;;;;;;;1.35;0.50;;;10.90;88.30;;;;;;6214935;23;20008;-74
2023/02/04 12:42:43;;;;;;;0.80;0.43;;;10.90;88.40;;;;;;6190689;23;20004;-74
2023/02/04 12:45:10;;;;;;;1.08;0.52;;;10.90;89.10;;;;;;6214939;23;20016;-74
2023/02/04 12:47:36;;;;;;;1.50;0.55;;;10.80;88.60;;;;;;6214861;23;20009;-74
2023/02/04 12:50:02;;;;;;;2.47;0.47;;;10.70;88.70;;;;;;6214672;23;20024;-74
2023/02/04 12:52:28;;;;;;;1.25;0.40;;;10.70;88.90;;;;;;6187976;23;20012;-74
2023/02/04 12:54:54;;;;;;;0.47;0.30;;;10.60;89.00;;;;;;6214776;23;20059;-74
2023/02/04 12:57:19;;;;;;;1.13;0.45;;;10.60;89.00;;;;;;6188336;23;20337;-74